< Typhoon 198304 1983 Season Typhoon 198306 >
Typhoon 198305 (ABBY)
General InformationTrack Information on Google MapsDetailed Wind InformationList of All Images || Disaster Info.ResourceGoogle EarthGE AnimationAtom FeedGeoJSON
Detalied Best Track (Time Zone = UTC)
Year Month Day Hour Lat. Long. Pressure (hPa) Wind (kt) Class Image Chart
1983 8 4 00 9.0 144.0 1008 0 2 Image Chart
1983 8 4 06 9.0 143.0 1006 0 2 Image Chart
1983 8 4 12 9.0 142.0 1006 0 2 Image Chart
1983 8 4 18 9.0 141.4 1006 0 2 Image Chart
1983 8 5 00 9.2 140.8 1004 0 2 Image Chart
1983 8 5 06 9.4 140.4 998 35 3 Image Chart
1983 8 5 12 9.6 140.0 998 35 3 Image Chart
1983 8 5 18 9.9 139.4 996 35 3 Image Chart
1983 8 6 00 10.3 138.8 996 40 3 Image Chart
1983 8 6 06 11.1 138.1 990 40 3 Image Chart
1983 8 6 12 11.8 137.4 985 50 4 Image Chart
1983 8 6 18 12.3 136.7 975 65 5 Image Chart
1983 8 7 00 12.9 135.8 970 70 5 Image Chart
1983 8 7 06 13.5 135.1 965 80 5 Image Chart
1983 8 7 12 14.4 134.0 945 90 5 Image Chart
1983 8 7 18 15.0 133.4 920 100 5 Image Chart
1983 8 8 00 15.8 132.7 910 100 5 Image Chart
1983 8 8 06 16.5 132.5 910 100 5 Image Chart
1983 8 8 12 17.1 132.0 900 100 5 Image Chart
1983 8 8 18 17.4 131.5 895 110 5 Image Chart
1983 8 9 00 17.8 130.8 895 120 5 Image Chart
1983 8 9 06 18.2 130.6 900 120 5 Image Chart
1983 8 9 12 18.6 130.5 910 110 5 Image Chart
1983 8 9 18 18.9 130.4 920 115 5 Image Chart
1983 8 10 00 19.2 130.4 925 110 5 Image Chart
1983 8 10 06 19.5 130.4 925 110 5 Image Chart
1983 8 10 12 19.9 130.5 925 110 5 Image Chart
1983 8 10 18 20.1 130.5 930 105 5 Image Chart
1983 8 11 00 20.5 130.7 935 100 5 Image Chart
1983 8 11 06 21.2 130.6 935 95 5 Image Chart
1983 8 11 12 21.6 130.6 920 110 5 Image Chart
1983 8 11 18 21.9 130.6 920 110 5 Image Chart
1983 8 12 00 22.5 130.5 920 110 5 Image Chart
1983 8 12 06 22.9 130.8 915 110 5 Image Chart
1983 8 12 12 23.3 131.1 915 110 5 Image Chart
1983 8 12 18 24.0 131.5 920 110 5 Image Chart
1983 8 13 00 24.6 131.8 925 110 5 Image Chart
1983 8 13 06 25.0 132.2 925 100 5 Image Chart
1983 8 13 12 25.4 132.6 930 100 5 Image Chart
1983 8 13 18 25.9 132.9 935 100 5 Image Chart
1983 8 14 00 26.6 133.3 940 85 5 Image Chart
1983 8 14 06 27.1 133.5 940 85 5 Image Chart
1983 8 14 12 27.6 133.5 945 85 5 Image Chart
1983 8 14 18 28.0 133.5 950 85 5 Image Chart
1983 8 15 00 28.5 133.6 955 85 5 Image Chart
1983 8 15 06 29.0 133.9 955 85 5 Image Chart
1983 8 15 12 29.6 134.4 955 80 5 Image Chart
1983 8 15 18 30.4 134.7 960 80 5 Image Chart
1983 8 16 00 31.1 135.1 960 70 5 Image Chart
1983 8 16 06 31.9 135.8 965 70 5 Image Chart
1983 8 16 12 32.7 136.5 970 60 4 Image Chart
1983 8 16 18 33.8 137.0 970 55 4 Image Chart
1983 8 17 00 34.8 137.4 974 45 3 Image Chart
1983 8 17 06 35.0 138.2 978 40 3 Image Chart
1983 8 17 12 35.7 139.2 984 40 3 Image Chart
1983 8 17 18 36.5 140.3 990 40 3 Image Chart
1983 8 18 00 37.4 141.5 992 40 3 Image Chart
1983 8 18 06 37.7 142.3 992 40 3 Image Chart
1983 8 18 12 37.9 143.3 992 40 3 Image Chart
1983 8 18 18 37.9 144.2 992 40 3 Image Chart
1983 8 19 00 38.0 144.5 992 0 2 Image Chart
1983 8 19 06 38.0 145.0 990 0 2 Image Chart
1983 8 19 12 37.7 145.7 990 0 2 Image Chart
1983 8 19 18 37.0 146.0 990 0 2 Image Chart
1983 8 20 00 36.0 146.5 990 0 2 Image Chart
1983 8 20 06 35.0 147.0 990 0 2 Image Chart
1983 8 20 12 34.3 147.5 990 0 2 Image Chart
1983 8 20 18 33.7 148.2 994 0 2 Image Chart
1983 8 21 00 33.0 149.0 998 0 6 Image Chart
1983 8 21 06 33.0 149.5 1000 0 6 Image Chart
1983 8 21 12 33.0 150.0 1000 0 6 Image Chart
1983 8 21 18 33.0 150.5 1000 0 6 Image Chart
1983 8 22 00 33.0 151.0 1002 0 6 Image Chart
1983 8 22 06 33.5 151.5 1002 0 6 Image Chart
1983 8 22 12 34.0 152.0 1002 0 6 Image Chart
1983 8 22 18 34.5 152.5 1002 0 6 Image Chart
1983 8 23 00 35.0 153.0 1002 0 6 Image Chart
1983 8 23 06 35.5 153.5 1002 0 6 Image Chart
1983 8 23 12 36.0 154.0 1004 0 6 Image Chart
1983 8 23 18 36.5 155.0 1004 0 6 Image Chart
1983 8 24 00 37.0 156.0 1004 0 6 Image Chart
Japan Meteorological Agency Best Track Data | Correction Date : 1992-10-21
< Typhoon 198304 1983 Season Typhoon 198306 >

Help